Terminal Aerodrome Forecast
Issued by NWS Shreveport, LA

Home | Current Version | Previous Version | Text Only | Print | Product List | Glossary On
Versions: 1 2 3 4 5 6 7 8 9 10 11 12 13 14 15
643
FTUS44 KSHV 252355
TAFELD
TAF
KELD 252355Z 2600/2624 VRB03KT P6SM VCTS SCT060CB BKN150
      TEMPO 2600/2602 -TSRA BKN060CB BKN120
     FM260400 06003KT P6SM SCT250
     FM260600 00000KT P6SM VCSH BKN050 BKN120
      TEMPO 2613/2615 BKN030 BKN120
     FM261600 09006KT P6SM SCT250=

USA.gov is the U.S. government's official web portal to all federal, state and local government web resources and services.